aviador You're here:

KAFN Decoded Metar

JAFFREY in NH, USA
Report Time2017-07-24 20:41:00
UTC Time2017-07-24 20:47:29
Flight Rules mvfr MVFR
WindVRB at 04 kt
Visibility9656 m
Phenomena:Light Rain
Mist
Clouds:Overcast 011 Hf
Ceiling1,100 ft
Temp13°C (ISA 0)
Dew Point13°C (100% RH)
AAT12.5°C
QNH1014 hPa
Density Alt1,204 ft
Elevation1,027 ft
Report Wrong Elevation
Raw Report
KAFN 242041Z AUTO VRB04KT 6SM -RA BR OVC011 13/13 A2994 RMK AO2
P0003 T01280128=

Extra information for KAFN:More info

Metar Taf Metar & Taf Last 4 Metars F.Rules Stats Wind Profile Meteogram Temp Stats Airport Information Weather charts Add Link Nearby VenuesMetar ALERT Operation Metar Decoded Social comments

AIRNAV info for KAFN